sensor_id;sensor_type;location;lat;lon;timestamp;temperature;humidity
31369;DHT22;18004;48.416;10.066;2022-09-09T00:07:08;13.50;98.20
31369;DHT22;18004;48.416;10.066;2022-09-09T00:09:46;13.50;98.50
31369;DHT22;18004;48.416;10.066;2022-09-09T00:17:21;13.40;99.40
31369;DHT22;18004;48.416;10.066;2022-09-09T00:22:35;13.30;99.90
31369;DHT22;18004;48.416;10.066;2022-09-09T00:25:11;13.30;99.90
31369;DHT22;18004;48.416;10.066;2022-09-09T00:27:45;13.30;99.90
31369;DHT22;18004;48.416;10.066;2022-09-09T00:32:40;13.30;99.90
31369;DHT22;18004;48.416;10.066;2022-09-09T00:37:37;13.30;99.40
31369;DHT22;18004;48.416;10.066;2022-09-09T00:40:53;13.30;99.30
31369;DHT22;18004;48.416;10.066;2022-09-09T00:43:28;13.30;99.20
31369;DHT22;18004;48.416;10.066;2022-09-09T00:48:34;13.30;99.70
31369;DHT22;18004;48.416;10.066;2022-09-09T00:51:14;13.30;99.70
31369;DHT22;18004;48.416;10.066;2022-09-09T00:56:22;13.20;99.20
31369;DHT22;18004;48.416;10.066;2022-09-09T01:01:36;13.20;99.00
31369;DHT22;18004;48.416;10.066;2022-09-09T01:04:06;13.20;99.30
31369;DHT22;18004;48.416;10.066;2022-09-09T01:06:33;13.10;99.10
31369;DHT22;18004;48.416;10.066;2022-09-09T01:11:49;13.10;99.10
31369;DHT22;18004;48.416;10.066;2022-09-09T01:16:46;13.00;99.10
31369;DHT22;18004;48.416;10.066;2022-09-09T01:19:15;13.00;99.10
31369;DHT22;18004;48.416;10.066;2022-09-09T01:21:47;13.00;99.40
31369;DHT22;18004;48.416;10.066;2022-09-09T01:26:44;12.80;99.70
31369;DHT22;18004;48.416;10.066;2022-09-09T01:29:14;12.80;99.90
31369;DHT22;18004;48.416;10.066;2022-09-09T01:31:41;12.80;99.90
31369;DHT22;18004;48.416;10.066;2022-09-09T01:34:12;12.80;99.60
31369;DHT22;18004;48.416;10.066;2022-09-09T01:36:45;12.80;99.60
31369;DHT22;18004;48.416;10.066;2022-09-09T01:39:11;12.80;99.90
31369;DHT22;18004;48.416;10.066;2022-09-09T01:41:38;12.70;99.90
31369;DHT22;18004;48.416;10.066;2022-09-09T01:44:03;12.70;99.90
31369;DHT22;18004;48.416;10.066;2022-09-09T01:46:30;12.70;99.90
31369;DHT22;18004;48.416;10.066;2022-09-09T01:48:55;12.70;99.90
31369;DHT22;18004;48.416;10.066;2022-09-09T01:51:21;12.70;99.90
31369;DHT22;18004;48.416;10.066;2022-09-09T01:53:47;12.70;99.90
31369;DHT22;18004;48.416;10.066;2022-09-09T01:56:35;12.70;99.90
31369;DHT22;18004;48.416;10.066;2022-09-09T02:04:03;12.60;99.90
31369;DHT22;18004;48.416;10.066;2022-09-09T02:08:59;12.50;99.90
31369;DHT22;18004;48.416;10.066;2022-09-09T02:11:27;12.50;99.90
31369;DHT22;18004;48.416;10.066;2022-09-09T02:13:54;12.50;99.90
31369;DHT22;18004;48.416;10.066;2022-09-09T02:16:23;12.50;99.90
31369;DHT22;18004;48.416;10.066;2022-09-09T02:21:18;12.50;99.90
31369;DHT22;18004;48.416;10.066;2022-09-09T02:23:44;12.50;99.90
31369;DHT22;18004;48.416;10.066;2022-09-09T02:26:12;12.50;99.90
31369;DHT22;18004;48.416;10.066;2022-09-09T02:28:44;12.40;99.90
31369;DHT22;18004;48.416;10.066;2022-09-09T02:31:11;12.40;99.90
31369;DHT22;18004;48.416;10.066;2022-09-09T02:33:38;12.40;99.90
31369;DHT22;18004;48.416;10.066;2022-09-09T02:36:05;12.30;99.90
31369;DHT22;18004;48.416;10.066;2022-09-09T02:38:35;12.30;99.90
31369;DHT22;18004;48.416;10.066;2022-09-09T02:41:01;12.30;99.90
31369;DHT22;18004;48.416;10.066;2022-09-09T02:43:34;12.20;99.90
31369;DHT22;18004;48.416;10.066;2022-09-09T02:49:15;12.20;99.90
31369;DHT22;18004;48.416;10.066;2022-09-09T02:51:18;12.10;99.90
31369;DHT22;18004;48.416;10.066;2022-09-09T02:56:16;12.10;99.90
31369;DHT22;18004;48.416;10.066;2022-09-09T02:58:43;12.10;99.90
31369;DHT22;18004;48.416;10.066;2022-09-09T03:01:09;12.10;99.90
31369;DHT22;18004;48.416;10.066;2022-09-09T03:03:35;12.00;99.90
31369;DHT22;18004;48.416;10.066;2022-09-09T03:06:01;12.00;99.90
31369;DHT22;18004;48.416;10.066;2022-09-09T03:08:26;12.10;99.90
31369;DHT22;18004;48.416;10.066;2022-09-09T03:10:57;12.10;99.90
31369;DHT22;18004;48.416;10.066;2022-09-09T03:13:23;12.10;99.90
31369;DHT22;18004;48.416;10.066;2022-09-09T03:15:50;12.10;99.90
31369;DHT22;18004;48.416;10.066;2022-09-09T03:18:17;12.20;99.90
31369;DHT22;18004;48.416;10.066;2022-09-09T03:20:42;12.20;99.90
31369;DHT22;18004;48.416;10.066;2022-09-09T03:23:08;12.20;99.90
31369;DHT22;18004;48.416;10.066;2022-09-09T03:25:34;12.20;99.90
31369;DHT22;18004;48.416;10.066;2022-09-09T03:28:01;12.30;99.90
31369;DHT22;18004;48.416;10.066;2022-09-09T03:30:27;12.30;99.90
31369;DHT22;18004;48.416;10.066;2022-09-09T03:32:53;12.30;99.90
31369;DHT22;18004;48.416;10.066;2022-09-09T03:35:18;12.40;99.90
31369;DHT22;18004;48.416;10.066;2022-09-09T03:37:44;12.40;99.90
31369;DHT22;18004;48.416;10.066;2022-09-09T03:40:10;12.40;99.90
31369;DHT22;18004;48.416;10.066;2022-09-09T03:42:36;12.40;99.90
31369;DHT22;18004;48.416;10.066;2022-09-09T03:45:03;12.40;99.90
31369;DHT22;18004;48.416;10.066;2022-09-09T03:47:28;12.40;99.90
31369;DHT22;18004;48.416;10.066;2022-09-09T03:49:55;12.30;99.90
31369;DHT22;18004;48.416;10.066;2022-09-09T03:52:20;12.30;99.90
31369;DHT22;18004;48.416;10.066;2022-09-09T03:54:50;12.30;99.90
31369;DHT22;18004;48.416;10.066;2022-09-09T03:57:16;12.30;99.90
31369;DHT22;18004;48.416;10.066;2022-09-09T03:59:42;12.40;99.90
31369;DHT22;18004;48.416;10.066;2022-09-09T04:02:08;12.40;99.90
31369;DHT22;18004;48.416;10.066;2022-09-09T04:04:34;12.40;99.90
31369;DHT22;18004;48.416;10.066;2022-09-09T04:07:00;12.40;99.90
31369;DHT22;18004;48.416;10.066;2022-09-09T04:09:25;12.50;99.90
31369;DHT22;18004;48.416;10.066;2022-09-09T04:11:51;12.60;99.90
31369;DHT22;18004;48.416;10.066;2022-09-09T04:14:18;12.70;99.90
31369;DHT22;18004;48.416;10.066;2022-09-09T04:16:44;12.70;99.90
31369;DHT22;18004;48.416;10.066;2022-09-09T04:19:10;12.70;99.90
31369;DHT22;18004;48.416;10.066;2022-09-09T04:21:38;12.70;99.90
31369;DHT22;18004;48.416;10.066;2022-09-09T04:24:05;12.70;99.90
31369;DHT22;18004;48.416;10.066;2022-09-09T04:26:31;12.80;99.90
31369;DHT22;18004;48.416;10.066;2022-09-09T04:28:57;12.70;99.90
31369;DHT22;18004;48.416;10.066;2022-09-09T04:31:23;12.70;99.90
31369;DHT22;18004;48.416;10.066;2022-09-09T04:33:49;12.80;99.90
31369;DHT22;18004;48.416;10.066;2022-09-09T04:36:15;12.90;99.90
31369;DHT22;18004;48.416;10.066;2022-09-09T04:38:41;12.80;99.90
31369;DHT22;18004;48.416;10.066;2022-09-09T04:41:07;12.80;99.90
31369;DHT22;18004;48.416;10.066;2022-09-09T04:43:33;12.80;99.90
31369;DHT22;18004;48.416;10.066;2022-09-09T04:45:59;12.70;99.90
31369;DHT22;18004;48.416;10.066;2022-09-09T04:48:24;12.70;99.90
31369;DHT22;18004;48.416;10.066;2022-09-09T04:50:54;12.70;99.90
31369;DHT22;18004;48.416;10.066;2022-09-09T04:53:26;12.70;99.90
31369;DHT22;18004;48.416;10.066;2022-09-09T04:55:52;12.70;99.90
31369;DHT22;18004;48.416;10.066;2022-09-09T04:58:18;12.80;99.90
31369;DHT22;18004;48.416;10.066;2022-09-09T05:00:43;12.90;99.90
31369;DHT22;18004;48.416;10.066;2022-09-09T05:03:09;13.00;99.90
31369;DHT22;18004;48.416;10.066;2022-09-09T05:05:35;13.00;99.90
31369;DHT22;18004;48.416;10.066;2022-09-09T05:08:04;13.00;99.90
31369;DHT22;18004;48.416;10.066;2022-09-09T05:10:30;13.10;99.90
31369;DHT22;18004;48.416;10.066;2022-09-09T05:12:56;13.10;99.90
31369;DHT22;18004;48.416;10.066;2022-09-09T05:15:22;13.00;99.90
31369;DHT22;18004;48.416;10.066;2022-09-09T05:17:47;13.00;99.90
31369;DHT22;18004;48.416;10.066;2022-09-09T05:20:13;13.10;99.90
31369;DHT22;18004;48.416;10.066;2022-09-09T05:22:39;13.00;99.90
31369;DHT22;18004;48.416;10.066;2022-09-09T05:25:05;12.90;99.90
31369;DHT22;18004;48.416;10.066;2022-09-09T05:27:30;12.90;99.90
31369;DHT22;18004;48.416;10.066;2022-09-09T05:29:58;12.80;99.90
31369;DHT22;18004;48.416;10.066;2022-09-09T05:32:24;12.80;99.90
31369;DHT22;18004;48.416;10.066;2022-09-09T05:34:50;12.80;99.90
31369;DHT22;18004;48.416;10.066;2022-09-09T05:37:16;12.80;99.90
31369;DHT22;18004;48.416;10.066;2022-09-09T05:39:42;12.80;99.90
31369;DHT22;18004;48.416;10.066;2022-09-09T05:42:08;12.80;99.90
31369;DHT22;18004;48.416;10.066;2022-09-09T05:44:33;12.80;99.90
31369;DHT22;18004;48.416;10.066;2022-09-09T05:46:59;12.80;99.90
31369;DHT22;18004;48.416;10.066;2022-09-09T05:49:25;12.80;99.90
31369;DHT22;18004;48.416;10.066;2022-09-09T05:51:51;12.90;99.90
31369;DHT22;18004;48.416;10.066;2022-09-09T05:54:16;12.90;99.90
31369;DHT22;18004;48.416;10.066;2022-09-09T05:56:42;12.90;99.90
31369;DHT22;18004;48.416;10.066;2022-09-09T05:59:08;12.90;99.90
31369;DHT22;18004;48.416;10.066;2022-09-09T06:01:34;12.90;99.90
31369;DHT22;18004;48.416;10.066;2022-09-09T06:04:00;12.90;99.90
31369;DHT22;18004;48.416;10.066;2022-09-09T06:06:27;13.00;99.90
31369;DHT22;18004;48.416;10.066;2022-09-09T06:08:54;13.10;99.90
31369;DHT22;18004;48.416;10.066;2022-09-09T06:11:22;13.20;99.90
31369;DHT22;18004;48.416;10.066;2022-09-09T06:13:48;13.20;99.90
31369;DHT22;18004;48.416;10.066;2022-09-09T06:16:16;13.20;99.90
31369;DHT22;18004;48.416;10.066;2022-09-09T06:18:42;13.20;99.90
31369;DHT22;18004;48.416;10.066;2022-09-09T06:21:09;13.20;99.90
31369;DHT22;18004;48.416;10.066;2022-09-09T06:23:36;13.20;99.90
31369;DHT22;18004;48.416;10.066;2022-09-09T06:26:06;13.40;99.90
31369;DHT22;18004;48.416;10.066;2022-09-09T06:28:32;13.40;99.90
31369;DHT22;18004;48.416;10.066;2022-09-09T06:31:02;13.40;99.90
31369;DHT22;18004;48.416;10.066;2022-09-09T06:33:32;13.40;99.90
31369;DHT22;18004;48.416;10.066;2022-09-09T06:36:00;13.50;99.90
31369;DHT22;18004;48.416;10.066;2022-09-09T06:38:26;13.50;99.90
31369;DHT22;18004;48.416;10.066;2022-09-09T06:40:55;13.40;99.90
31369;DHT22;18004;48.416;10.066;2022-09-09T06:43:22;13.50;99.90
31369;DHT22;18004;48.416;10.066;2022-09-09T06:45:55;13.60;99.90
31369;DHT22;18004;48.416;10.066;2022-09-09T06:48:20;13.60;99.90
31369;DHT22;18004;48.416;10.066;2022-09-09T06:50:46;13.70;99.90
31369;DHT22;18004;48.416;10.066;2022-09-09T06:53:15;13.70;99.90
31369;DHT22;18004;48.416;10.066;2022-09-09T06:55:41;13.70;99.90
31369;DHT22;18004;48.416;10.066;2022-09-09T06:58:09;13.70;99.90
31369;DHT22;18004;48.416;10.066;2022-09-09T07:00:35;13.80;99.90
31369;DHT22;18004;48.416;10.066;2022-09-09T07:03:03;13.90;99.90
31369;DHT22;18004;48.416;10.066;2022-09-09T07:05:28;13.90;99.90
31369;DHT22;18004;48.416;10.066;2022-09-09T07:07:54;13.90;99.90
31369;DHT22;18004;48.416;10.066;2022-09-09T07:10:20;14.00;99.90
31369;DHT22;18004;48.416;10.066;2022-09-09T07:12:49;14.10;99.90
31369;DHT22;18004;48.416;10.066;2022-09-09T07:15:15;14.20;99.90
31369;DHT22;18004;48.416;10.066;2022-09-09T07:17:41;14.40;99.90
31369;DHT22;18004;48.416;10.066;2022-09-09T07:20:08;14.50;99.90
31369;DHT22;18004;48.416;10.066;2022-09-09T07:22:34;14.60;99.90
31369;DHT22;18004;48.416;10.066;2022-09-09T07:24:59;14.70;99.90
31369;DHT22;18004;48.416;10.066;2022-09-09T07:27:25;14.80;99.90
31369;DHT22;18004;48.416;10.066;2022-09-09T07:29:51;15.00;99.90
31369;DHT22;18004;48.416;10.066;2022-09-09T07:32:16;15.20;99.90
31369;DHT22;18004;48.416;10.066;2022-09-09T07:34:43;15.40;99.90
31369;DHT22;18004;48.416;10.066;2022-09-09T07:37:08;15.50;99.90
31369;DHT22;18004;48.416;10.066;2022-09-09T07:39:37;15.50;99.90
31369;DHT22;18004;48.416;10.066;2022-09-09T07:42:02;15.50;99.90
31369;DHT22;18004;48.416;10.066;2022-09-09T07:44:29;15.50;99.90
31369;DHT22;18004;48.416;10.066;2022-09-09T07:46:55;15.50;99.90
31369;DHT22;18004;48.416;10.066;2022-09-09T07:49:21;15.70;99.90
31369;DHT22;18004;48.416;10.066;2022-09-09T07:51:46;15.90;99.90
31369;DHT22;18004;48.416;10.066;2022-09-09T07:54:14;16.10;99.90
31369;DHT22;18004;48.416;10.066;2022-09-09T07:56:40;16.30;99.90
31369;DHT22;18004;48.416;10.066;2022-09-09T07:59:06;16.50;99.90
31369;DHT22;18004;48.416;10.066;2022-09-09T08:01:33;16.80;99.90
31369;DHT22;18004;48.416;10.066;2022-09-09T08:04:02;17.10;99.90
31369;DHT22;18004;48.416;10.066;2022-09-09T08:06:29;17.30;99.90
31369;DHT22;18004;48.416;10.066;2022-09-09T08:08:55;17.30;99.90
31369;DHT22;18004;48.416;10.066;2022-09-09T08:11:21;17.40;99.90
31369;DHT22;18004;48.416;10.066;2022-09-09T08:13:48;17.40;99.90
31369;DHT22;18004;48.416;10.066;2022-09-09T08:16:16;17.50;99.90
31369;DHT22;18004;48.416;10.066;2022-09-09T08:18:42;17.50;99.90
31369;DHT22;18004;48.416;10.066;2022-09-09T08:21:09;17.50;99.90
31369;DHT22;18004;48.416;10.066;2022-09-09T08:23:37;17.50;99.90
31369;DHT22;18004;48.416;10.066;2022-09-09T08:26:11;17.40;99.90
31369;DHT22;18004;48.416;10.066;2022-09-09T08:28:37;17.30;99.90
31369;DHT22;18004;48.416;10.066;2022-09-09T08:31:10;17.30;99.90
31369;DHT22;18004;48.416;10.066;2022-09-09T08:33:36;17.40;99.90
31369;DHT22;18004;48.416;10.066;2022-09-09T08:36:04;17.60;99.50
31369;DHT22;18004;48.416;10.066;2022-09-09T08:38:29;17.70;99.10
31369;DHT22;18004;48.416;10.066;2022-09-09T08:40:58;17.90;99.90
31369;DHT22;18004;48.416;10.066;2022-09-09T08:43:29;17.90;98.60
31369;DHT22;18004;48.416;10.066;2022-09-09T08:46:03;17.70;97.90
31369;DHT22;18004;48.416;10.066;2022-09-09T08:51:00;17.90;98.60
31369;DHT22;18004;48.416;10.066;2022-09-09T08:53:27;18.20;98.40
31369;DHT22;18004;48.416;10.066;2022-09-09T08:55:58;18.40;97.60
31369;DHT22;18004;48.416;10.066;2022-09-09T08:58:25;18.50;96.00
31369;DHT22;18004;48.416;10.066;2022-09-09T09:01:02;18.50;96.70
31369;DHT22;18004;48.416;10.066;2022-09-09T09:03:35;18.70;95.10
31369;DHT22;18004;48.416;10.066;2022-09-09T09:06:08;18.80;96.10
31369;DHT22;18004;48.416;10.066;2022-09-09T09:08:43;18.90;95.20
31369;DHT22;18004;48.416;10.066;2022-09-09T09:11:13;18.90;97.10
31369;DHT22;18004;48.416;10.066;2022-09-09T09:13:43;19.20;94.10
31369;DHT22;18004;48.416;10.066;2022-09-09T09:16:30;19.30;94.60
31369;DHT22;18004;48.416;10.066;2022-09-09T09:18:58;19.40;93.30
31369;DHT22;18004;48.416;10.066;2022-09-09T09:21:29;19.50;92.20
31369;DHT22;18004;48.416;10.066;2022-09-09T09:23:59;19.60;91.90
31369;DHT22;18004;48.416;10.066;2022-09-09T09:26:25;19.70;90.80
31369;DHT22;18004;48.416;10.066;2022-09-09T09:28:54;19.90;91.80
31369;DHT22;18004;48.416;10.066;2022-09-09T09:31:21;20.00;92.00
31369;DHT22;18004;48.416;10.066;2022-09-09T09:33:49;20.10;90.10
31369;DHT22;18004;48.416;10.066;2022-09-09T09:36:15;20.30;90.10
31369;DHT22;18004;48.416;10.066;2022-09-09T09:38:57;20.30;86.80
31369;DHT22;18004;48.416;10.066;2022-09-09T09:43:55;20.50;81.00
31369;DHT22;18004;48.416;10.066;2022-09-09T09:46:22;20.30;81.90
31369;DHT22;18004;48.416;10.066;2022-09-09T09:49:01;19.90;86.40
31369;DHT22;18004;48.416;10.066;2022-09-09T09:51:28;20.00;89.00
31369;DHT22;18004;48.416;10.066;2022-09-09T09:53:54;20.30;86.70
31369;DHT22;18004;48.416;10.066;2022-09-09T09:56:31;20.50;80.70
31369;DHT22;18004;48.416;10.066;2022-09-09T09:58:57;20.70;76.70
31369;DHT22;18004;48.416;10.066;2022-09-09T10:01:27;20.80;78.90
31369;DHT22;18004;48.416;10.066;2022-09-09T10:03:54;20.90;83.30
31369;DHT22;18004;48.416;10.066;2022-09-09T10:06:37;21.00;76.70
31369;DHT22;18004;48.416;10.066;2022-09-09T10:09:20;21.10;76.70
31369;DHT22;18004;48.416;10.066;2022-09-09T10:11:57;21.20;73.40
31369;DHT22;18004;48.416;10.066;2022-09-09T10:14:28;21.40;73.20
31369;DHT22;18004;48.416;10.066;2022-09-09T10:17:11;21.60;66.70
31369;DHT22;18004;48.416;10.066;2022-09-09T10:19:41;21.70;68.50
31369;DHT22;18004;48.416;10.066;2022-09-09T10:27:19;22.10;61.30
31369;DHT22;18004;48.416;10.066;2022-09-09T10:30:02;22.00;60.40
31369;DHT22;18004;48.416;10.066;2022-09-09T10:37:40;22.40;57.90
31369;DHT22;18004;48.416;10.066;2022-09-09T10:40:15;22.60;50.10
31369;DHT22;18004;48.416;10.066;2022-09-09T10:42:45;22.60;36.70
31369;DHT22;18004;48.416;10.066;2022-09-09T10:45:18;22.50;42.50
31369;DHT22;18004;48.416;10.066;2022-09-09T10:50:28;22.80;35.70
31369;DHT22;18004;48.416;10.066;2022-09-09T10:55:27;23.10;30.00
31369;DHT22;18004;48.416;10.066;2022-09-09T10:57:54;23.10;28.80
31369;DHT22;18004;48.416;10.066;2022-09-09T11:00:22;23.20;30.00
31369;DHT22;18004;48.416;10.066;2022-09-09T11:02:50;23.10;24.20
31369;DHT22;18004;48.416;10.066;2022-09-09T11:08:03;23.30;25.20
31369;DHT22;18004;48.416;10.066;2022-09-09T11:12:57;23.20;18.70
31369;DHT22;18004;48.416;10.066;2022-09-09T11:17:56;23.50;17.80
31369;DHT22;18004;48.416;10.066;2022-09-09T11:20:23;23.70;18.00
31369;DHT22;18004;48.416;10.066;2022-09-09T11:22:52;23.60;19.10
31369;DHT22;18004;48.416;10.066;2022-09-09T11:25:21;23.70;14.80
31369;DHT22;18004;48.416;10.066;2022-09-09T11:30:47;23.70;15.80
31369;DHT22;18004;48.416;10.066;2022-09-09T11:33:22;23.70;14.20
31369;DHT22;18004;48.416;10.066;2022-09-09T11:39:22;23.70;14.10
31369;DHT22;18004;48.416;10.066;2022-09-09T11:41:38;23.30;15.00
31369;DHT22;18004;48.416;10.066;2022-09-09T11:44:16;23.10;14.90
31369;DHT22;18004;48.416;10.066;2022-09-09T11:46:42;23.30;16.20
31369;DHT22;18004;48.416;10.066;2022-09-09T11:49:28;23.70;13.00
31369;DHT22;18004;48.416;10.066;2022-09-09T11:51:55;23.90;11.40
31369;DHT22;18004;48.416;10.066;2022-09-09T11:54:28;23.90;9.50
31369;DHT22;18004;48.416;10.066;2022-09-09T11:56:54;23.80;10.50
31369;DHT22;18004;48.416;10.066;2022-09-09T11:59:24;23.60;11.10
31369;DHT22;18004;48.416;10.066;2022-09-09T12:02:00;23.30;11.00
31369;DHT22;18004;48.416;10.066;2022-09-09T12:04:31;22.90;14.00
31369;DHT22;18004;48.416;10.066;2022-09-09T12:09:48;22.40;19.30
31369;DHT22;18004;48.416;10.066;2022-09-09T12:12:24;22.80;15.00
31369;DHT22;18004;48.416;10.066;2022-09-09T12:15:00;22.90;13.10
31369;DHT22;18004;48.416;10.066;2022-09-09T12:17:27;23.00;12.50
31369;DHT22;18004;48.416;10.066;2022-09-09T12:20:10;22.80;11.30
31369;DHT22;18004;48.416;10.066;2022-09-09T12:25:16;23.30;9.70
31369;DHT22;18004;48.416;10.066;2022-09-09T12:30:10;23.80;10.10
31369;DHT22;18004;48.416;10.066;2022-09-09T12:32:36;23.90;8.00
31369;DHT22;18004;48.416;10.066;2022-09-09T12:35:26;23.80;7.70
31369;DHT22;18004;48.416;10.066;2022-09-09T12:37:52;23.80;5.80
31369;DHT22;18004;48.416;10.066;2022-09-09T12:40:26;23.40;7.00
31369;DHT22;18004;48.416;10.066;2022-09-09T12:42:52;23.20;8.20
31369;DHT22;18004;48.416;10.066;2022-09-09T12:45:21;23.30;9.50
31369;DHT22;18004;48.416;10.066;2022-09-09T12:50:22;23.70;8.70
31369;DHT22;18004;48.416;10.066;2022-09-09T12:52:51;23.60;8.30
31369;DHT22;18004;48.416;10.066;2022-09-09T12:55:19;23.60;7.80
31369;DHT22;18004;48.416;10.066;2022-09-09T12:57:47;23.60;7.90
31369;DHT22;18004;48.416;10.066;2022-09-09T13:00:22;23.70;8.60
31369;DHT22;18004;48.416;10.066;2022-09-09T13:02:58;23.70;7.60
31369;DHT22;18004;48.416;10.066;2022-09-09T13:05:28;23.40;7.00
31369;DHT22;18004;48.416;10.066;2022-09-09T13:08:05;23.20;7.90
31369;DHT22;18004;48.416;10.066;2022-09-09T13:10:35;23.00;7.40
31369;DHT22;18004;48.416;10.066;2022-09-09T13:13:04;22.90;8.90
31369;DHT22;18004;48.416;10.066;2022-09-09T13:15:30;22.70;10.00
31369;DHT22;18004;48.416;10.066;2022-09-09T13:17:57;22.60;9.00
31369;DHT22;18004;48.416;10.066;2022-09-09T13:20:26;22.60;8.60
31369;DHT22;18004;48.416;10.066;2022-09-09T13:22:52;22.60;10.00
31369;DHT22;18004;48.416;10.066;2022-09-09T13:27:55;22.70;13.00
31369;DHT22;18004;48.416;10.066;2022-09-09T13:35:27;22.50;10.50
31369;DHT22;18004;48.416;10.066;2022-09-09T13:37:53;22.50;10.70
31369;DHT22;18004;48.416;10.066;2022-09-09T13:40:20;22.40;12.50
31369;DHT22;18004;48.416;10.066;2022-09-09T13:42:46;22.50;10.50
31369;DHT22;18004;48.416;10.066;2022-09-09T13:45:20;22.50;9.60
31369;DHT22;18004;48.416;10.066;2022-09-09T13:47:46;22.70;7.10
31369;DHT22;18004;48.416;10.066;2022-09-09T13:50:22;22.90;7.40
31369;DHT22;18004;48.416;10.066;2022-09-09T13:52:49;22.70;7.10
31369;DHT22;18004;48.416;10.066;2022-09-09T13:55:17;22.80;6.30
31369;DHT22;18004;48.416;10.066;2022-09-09T13:57:50;22.80;7.20
31369;DHT22;18004;48.416;10.066;2022-09-09T14:00:16;22.80;7.20
31369;DHT22;18004;48.416;10.066;2022-09-09T14:02:41;22.90;6.90
31369;DHT22;18004;48.416;10.066;2022-09-09T14:05:09;22.90;7.10
31369;DHT22;18004;48.416;10.066;2022-09-09T14:07:38;23.10;6.00
31369;DHT22;18004;48.416;10.066;2022-09-09T14:10:05;23.20;6.70
31369;DHT22;18004;48.416;10.066;2022-09-09T14:12:31;23.40;5.70
31369;DHT22;18004;48.416;10.066;2022-09-09T14:14:57;23.40;5.40
31369;DHT22;18004;48.416;10.066;2022-09-09T14:17:22;23.50;5.30
31369;DHT22;18004;48.416;10.066;2022-09-09T14:19:50;23.40;6.00
31369;DHT22;18004;48.416;10.066;2022-09-09T14:22:16;23.40;4.40
31369;DHT22;18004;48.416;10.066;2022-09-09T14:24:41;23.40;3.70
31369;DHT22;18004;48.416;10.066;2022-09-09T14:27:07;23.50;4.00
31369;DHT22;18004;48.416;10.066;2022-09-09T14:29:32;23.40;4.80
31369;DHT22;18004;48.416;10.066;2022-09-09T14:31:58;23.10;4.80
31369;DHT22;18004;48.416;10.066;2022-09-09T14:34:26;23.00;6.30
31369;DHT22;18004;48.416;10.066;2022-09-09T14:36:52;22.80;6.20
31369;DHT22;18004;48.416;10.066;2022-09-09T14:39:17;22.90;7.00
31369;DHT22;18004;48.416;10.066;2022-09-09T14:41:43;22.90;7.30
31369;DHT22;18004;48.416;10.066;2022-09-09T14:44:09;22.70;6.70
31369;DHT22;18004;48.416;10.066;2022-09-09T14:46:35;22.80;7.70
31369;DHT22;18004;48.416;10.066;2022-09-09T14:49:01;22.50;6.90
31369;DHT22;18004;48.416;10.066;2022-09-09T14:51:26;22.40;7.50
31369;DHT22;18004;48.416;10.066;2022-09-09T14:53:54;22.20;8.10
31369;DHT22;18004;48.416;10.066;2022-09-09T14:56:21;21.90;8.80
31369;DHT22;18004;48.416;10.066;2022-09-09T14:58:48;21.90;9.10
31369;DHT22;18004;48.416;10.066;2022-09-09T15:01:15;22.20;7.70
31369;DHT22;18004;48.416;10.066;2022-09-09T15:03:42;22.50;8.00
31369;DHT22;18004;48.416;10.066;2022-09-09T15:06:10;22.80;7.50
31369;DHT22;18004;48.416;10.066;2022-09-09T15:08:36;23.20;5.90
31369;DHT22;18004;48.416;10.066;2022-09-09T15:11:03;22.90;5.70
31369;DHT22;18004;48.416;10.066;2022-09-09T15:13:30;22.30;8.10
31369;DHT22;18004;48.416;10.066;2022-09-09T15:15:55;22.30;7.30
31369;DHT22;18004;48.416;10.066;2022-09-09T15:18:23;22.00;7.60
31369;DHT22;18004;48.416;10.066;2022-09-09T15:20:48;21.80;7.90
31369;DHT22;18004;48.416;10.066;2022-09-09T15:23:14;21.80;8.20
31369;DHT22;18004;48.416;10.066;2022-09-09T15:25:50;21.70;8.70
31369;DHT22;18004;48.416;10.066;2022-09-09T15:28:17;21.70;8.90
31369;DHT22;18004;48.416;10.066;2022-09-09T15:30:43;21.70;9.70
31369;DHT22;18004;48.416;10.066;2022-09-09T15:33:10;21.70;6.30
31369;DHT22;18004;48.416;10.066;2022-09-09T15:35:36;21.80;6.40
31369;DHT22;18004;48.416;10.066;2022-09-09T15:38:02;21.70;7.70
31369;DHT22;18004;48.416;10.066;2022-09-09T15:40:28;21.60;6.40
31369;DHT22;18004;48.416;10.066;2022-09-09T15:42:54;21.80;7.20
31369;DHT22;18004;48.416;10.066;2022-09-09T15:45:19;21.90;6.70
31369;DHT22;18004;48.416;10.066;2022-09-09T15:47:46;21.90;6.40
31369;DHT22;18004;48.416;10.066;2022-09-09T15:50:12;22.20;6.20
31369;DHT22;18004;48.416;10.066;2022-09-09T15:52:38;22.30;5.50
31369;DHT22;18004;48.416;10.066;2022-09-09T15:55:03;22.20;5.40
31369;DHT22;18004;48.416;10.066;2022-09-09T15:57:29;22.00;6.10
31369;DHT22;18004;48.416;10.066;2022-09-09T15:59:55;21.90;5.90
31369;DHT22;18004;48.416;10.066;2022-09-09T16:02:20;21.90;6.00
31369;DHT22;18004;48.416;10.066;2022-09-09T16:04:47;21.80;6.40
31369;DHT22;18004;48.416;10.066;2022-09-09T16:07:12;21.60;5.90
31369;DHT22;18004;48.416;10.066;2022-09-09T16:09:38;21.60;6.20
31369;DHT22;18004;48.416;10.066;2022-09-09T16:12:05;21.60;6.00
31369;DHT22;18004;48.416;10.066;2022-09-09T16:14:37;21.50;5.80
31369;DHT22;18004;48.416;10.066;2022-09-09T16:17:04;21.50;5.70
31369;DHT22;18004;48.416;10.066;2022-09-09T16:19:31;21.50;6.20
31369;DHT22;18004;48.416;10.066;2022-09-09T16:21:56;21.50;6.60
31369;DHT22;18004;48.416;10.066;2022-09-09T16:24:22;21.50;5.50
31369;DHT22;18004;48.416;10.066;2022-09-09T16:26:50;21.30;6.90
31369;DHT22;18004;48.416;10.066;2022-09-09T16:29:16;21.40;6.20
31369;DHT22;18004;48.416;10.066;2022-09-09T16:31:42;21.40;6.40
31369;DHT22;18004;48.416;10.066;2022-09-09T16:34:08;21.30;6.10
31369;DHT22;18004;48.416;10.066;2022-09-09T16:36:35;21.30;7.60
31369;DHT22;18004;48.416;10.066;2022-09-09T16:39:04;21.20;7.40
31369;DHT22;18004;48.416;10.066;2022-09-09T16:41:31;21.10;6.70
31369;DHT22;18004;48.416;10.066;2022-09-09T16:43:57;21.10;7.00
31369;DHT22;18004;48.416;10.066;2022-09-09T16:46:24;21.00;6.20
31369;DHT22;18004;48.416;10.066;2022-09-09T16:48:51;20.80;7.10
31369;DHT22;18004;48.416;10.066;2022-09-09T16:53:42;20.80;7.50
31369;DHT22;18004;48.416;10.066;2022-09-09T16:56:09;20.70;6.80
31369;DHT22;18004;48.416;10.066;2022-09-09T16:58:35;20.70;7.30
31369;DHT22;18004;48.416;10.066;2022-09-09T17:01:02;20.60;8.10
31369;DHT22;18004;48.416;10.066;2022-09-09T17:03:28;20.40;7.60
31369;DHT22;18004;48.416;10.066;2022-09-09T17:05:54;20.30;7.50
31369;DHT22;18004;48.416;10.066;2022-09-09T17:08:20;20.30;7.60
31369;DHT22;18004;48.416;10.066;2022-09-09T17:10:45;20.40;7.90